オスロ の空港の天気 - METARとTAF

オスロ空港 ( ENGM / OSL ) - ノルウェー アーケシュフース県オスロ
飛行場実況気象(Metar)
観測時間10/24 05:20 CEST (10/24 03:20 UTC)
風向・風速東南東 3m/s
視程10km以上
天気現象
少しの雲 雲底高度 1490m
全天の8割程度の雲 雲底高度 4880m
気温4℃
湿度81%
気圧1017hPa
METARENGM 240320Z 11005KT 9999 FEW049 BKN160 04/01 Q1017
過去の天気等 Google飛行場航空写真 Wunderground天気予報

過去48時間のMETAR

飛行場予報(TAF)
発表時間: -
24日8時 CEST から 確率 40% で
全天の8割程度の雲 雲底高度 120m
TAF ENGM 2400/2424 18008KT CAVOK
PROB40 2406/2410 BKN004